sensor_id;sensor_type;location;lat;lon;timestamp;temperature;humidity
52565;DHT22;38460;53.106;7.004;2024-02-14T00:02:17;6.10;99.90
52565;DHT22;38460;53.106;7.004;2024-02-14T00:04:43;6.10;99.90
52565;DHT22;38460;53.106;7.004;2024-02-14T00:07:09;6.10;99.90
52565;DHT22;38460;53.106;7.004;2024-02-14T00:09:35;6.10;99.90
52565;DHT22;38460;53.106;7.004;2024-02-14T00:12:01;6.10;99.90
52565;DHT22;38460;53.106;7.004;2024-02-14T00:14:26;6.10;99.90
52565;DHT22;38460;53.106;7.004;2024-02-14T00:16:52;6.10;99.90
52565;DHT22;38460;53.106;7.004;2024-02-14T00:19:18;6.10;99.90
52565;DHT22;38460;53.106;7.004;2024-02-14T00:21:44;6.10;99.90
52565;DHT22;38460;53.106;7.004;2024-02-14T00:24:09;6.10;99.90
52565;DHT22;38460;53.106;7.004;2024-02-14T00:26:37;6.10;99.90
52565;DHT22;38460;53.106;7.004;2024-02-14T00:29:04;6.20;99.90
52565;DHT22;38460;53.106;7.004;2024-02-14T00:31:30;6.20;99.90
52565;DHT22;38460;53.106;7.004;2024-02-14T00:33:56;6.20;99.90
52565;DHT22;38460;53.106;7.004;2024-02-14T00:36:22;6.20;99.90
52565;DHT22;38460;53.106;7.004;2024-02-14T00:38:47;6.20;99.90
52565;DHT22;38460;53.106;7.004;2024-02-14T00:41:13;6.20;99.90
52565;DHT22;38460;53.106;7.004;2024-02-14T00:43:39;6.20;99.90
52565;DHT22;38460;53.106;7.004;2024-02-14T00:46:04;6.20;99.90
52565;DHT22;38460;53.106;7.004;2024-02-14T00:48:32;6.20;99.90
52565;DHT22;38460;53.106;7.004;2024-02-14T00:50:58;6.20;99.90
52565;DHT22;38460;53.106;7.004;2024-02-14T00:53:25;6.20;99.90
52565;DHT22;38460;53.106;7.004;2024-02-14T00:55:51;6.20;99.90
52565;DHT22;38460;53.106;7.004;2024-02-14T00:58:17;6.20;99.90
52565;DHT22;38460;53.106;7.004;2024-02-14T01:00:42;6.20;99.90
52565;DHT22;38460;53.106;7.004;2024-02-14T01:03:09;6.20;99.90
52565;DHT22;38460;53.106;7.004;2024-02-14T01:05:38;6.20;99.90
52565;DHT22;38460;53.106;7.004;2024-02-14T01:08:04;6.30;99.90
52565;DHT22;38460;53.106;7.004;2024-02-14T01:10:30;6.30;99.90
52565;DHT22;38460;53.106;7.004;2024-02-14T01:12:56;6.30;99.90
52565;DHT22;38460;53.106;7.004;2024-02-14T01:15:22;6.30;99.90
52565;DHT22;38460;53.106;7.004;2024-02-14T01:17:48;6.30;99.90
52565;DHT22;38460;53.106;7.004;2024-02-14T01:20:14;6.30;99.90
52565;DHT22;38460;53.106;7.004;2024-02-14T01:22:40;6.30;99.90
52565;DHT22;38460;53.106;7.004;2024-02-14T01:25:06;6.30;99.90
52565;DHT22;38460;53.106;7.004;2024-02-14T01:27:32;6.30;99.90
52565;DHT22;38460;53.106;7.004;2024-02-14T01:29:59;6.30;99.90
52565;DHT22;38460;53.106;7.004;2024-02-14T01:32:24;6.30;99.90
52565;DHT22;38460;53.106;7.004;2024-02-14T01:34:51;6.30;99.90
52565;DHT22;38460;53.106;7.004;2024-02-14T01:37:17;6.40;99.90
52565;DHT22;38460;53.106;7.004;2024-02-14T01:39:43;6.40;99.90
52565;DHT22;38460;53.106;7.004;2024-02-14T01:42:08;6.40;99.90
52565;DHT22;38460;53.106;7.004;2024-02-14T01:44:34;6.40;99.90
52565;DHT22;38460;53.106;7.004;2024-02-14T01:47:01;6.40;99.90
52565;DHT22;38460;53.106;7.004;2024-02-14T01:49:27;6.40;99.90
52565;DHT22;38460;53.106;7.004;2024-02-14T01:51:55;6.40;99.90
52565;DHT22;38460;53.106;7.004;2024-02-14T01:54:24;6.40;99.90
52565;DHT22;38460;53.106;7.004;2024-02-14T01:56:51;6.40;99.90
52565;DHT22;38460;53.106;7.004;2024-02-14T01:59:17;6.40;99.90
52565;DHT22;38460;53.106;7.004;2024-02-14T02:01:43;6.40;99.90
52565;DHT22;38460;53.106;7.004;2024-02-14T02:04:09;6.40;99.90
52565;DHT22;38460;53.106;7.004;2024-02-14T02:06:36;6.40;99.90
52565;DHT22;38460;53.106;7.004;2024-02-14T02:09:02;6.50;99.90
52565;DHT22;38460;53.106;7.004;2024-02-14T02:11:28;6.50;99.90
52565;DHT22;38460;53.106;7.004;2024-02-14T02:13:54;6.50;99.90
52565;DHT22;38460;53.106;7.004;2024-02-14T02:16:21;6.50;99.90
52565;DHT22;38460;53.106;7.004;2024-02-14T02:18:47;6.50;99.90
52565;DHT22;38460;53.106;7.004;2024-02-14T02:21:14;6.50;99.90
52565;DHT22;38460;53.106;7.004;2024-02-14T02:23:40;6.50;99.90
52565;DHT22;38460;53.106;7.004;2024-02-14T02:26:10;6.60;99.90
52565;DHT22;38460;53.106;7.004;2024-02-14T02:28:36;6.50;99.90
52565;DHT22;38460;53.106;7.004;2024-02-14T02:31:05;6.60;99.90
52565;DHT22;38460;53.106;7.004;2024-02-14T02:33:31;6.60;99.90
52565;DHT22;38460;53.106;7.004;2024-02-14T02:35:56;6.60;99.90
52565;DHT22;38460;53.106;7.004;2024-02-14T02:38:23;6.60;99.90
52565;DHT22;38460;53.106;7.004;2024-02-14T02:40:49;6.70;99.90
52565;DHT22;38460;53.106;7.004;2024-02-14T02:43:14;6.70;99.90
52565;DHT22;38460;53.106;7.004;2024-02-14T02:45:40;6.70;99.90
52565;DHT22;38460;53.106;7.004;2024-02-14T02:48:07;6.70;99.90
52565;DHT22;38460;53.106;7.004;2024-02-14T02:50:33;6.70;99.90
52565;DHT22;38460;53.106;7.004;2024-02-14T02:52:59;6.80;99.90
52565;DHT22;38460;53.106;7.004;2024-02-14T02:55:25;6.80;99.90
52565;DHT22;38460;53.106;7.004;2024-02-14T02:57:52;6.80;99.90
52565;DHT22;38460;53.106;7.004;2024-02-14T03:00:18;6.80;99.90
52565;DHT22;38460;53.106;7.004;2024-02-14T03:02:46;6.80;99.90
52565;DHT22;38460;53.106;7.004;2024-02-14T03:05:13;6.90;99.90
52565;DHT22;38460;53.106;7.004;2024-02-14T03:07:45;6.90;99.90
52565;DHT22;38460;53.106;7.004;2024-02-14T03:10:13;6.90;99.90
52565;DHT22;38460;53.106;7.004;2024-02-14T03:12:40;6.90;99.90
52565;DHT22;38460;53.106;7.004;2024-02-14T03:15:06;6.90;99.90
52565;DHT22;38460;53.106;7.004;2024-02-14T03:17:35;7.00;99.90
52565;DHT22;38460;53.106;7.004;2024-02-14T03:20:01;7.00;99.90
52565;DHT22;38460;53.106;7.004;2024-02-14T03:22:27;7.00;99.90
52565;DHT22;38460;53.106;7.004;2024-02-14T03:24:53;7.00;99.90
52565;DHT22;38460;53.106;7.004;2024-02-14T03:27:19;7.00;99.90
52565;DHT22;38460;53.106;7.004;2024-02-14T03:29:45;7.10;99.90
52565;DHT22;38460;53.106;7.004;2024-02-14T03:32:12;7.10;99.90
52565;DHT22;38460;53.106;7.004;2024-02-14T03:34:38;7.10;99.90
52565;DHT22;38460;53.106;7.004;2024-02-14T03:37:04;7.10;99.90
52565;DHT22;38460;53.106;7.004;2024-02-14T03:39:32;7.10;99.90
52565;DHT22;38460;53.106;7.004;2024-02-14T03:41:58;7.10;99.90
52565;DHT22;38460;53.106;7.004;2024-02-14T03:44:26;7.20;99.90
52565;DHT22;38460;53.106;7.004;2024-02-14T03:46:52;7.20;99.90
52565;DHT22;38460;53.106;7.004;2024-02-14T03:49:18;7.20;99.90
52565;DHT22;38460;53.106;7.004;2024-02-14T03:51:45;7.20;99.90
52565;DHT22;38460;53.106;7.004;2024-02-14T03:54:12;7.20;99.90
52565;DHT22;38460;53.106;7.004;2024-02-14T03:56:37;7.20;99.90
52565;DHT22;38460;53.106;7.004;2024-02-14T03:59:03;7.30;99.90
52565;DHT22;38460;53.106;7.004;2024-02-14T04:01:31;7.30;99.90
52565;DHT22;38460;53.106;7.004;2024-02-14T04:03:57;7.30;99.90
52565;DHT22;38460;53.106;7.004;2024-02-14T04:06:22;7.30;99.90
52565;DHT22;38460;53.106;7.004;2024-02-14T04:08:48;7.30;99.90
52565;DHT22;38460;53.106;7.004;2024-02-14T04:11:15;7.40;99.90
52565;DHT22;38460;53.106;7.004;2024-02-14T04:13:41;7.40;99.90
52565;DHT22;38460;53.106;7.004;2024-02-14T04:16:07;7.40;99.90
52565;DHT22;38460;53.106;7.004;2024-02-14T04:18:32;7.40;99.90
52565;DHT22;38460;53.106;7.004;2024-02-14T04:20:58;7.50;99.90
52565;DHT22;38460;53.106;7.004;2024-02-14T04:23:24;7.50;99.90
52565;DHT22;38460;53.106;7.004;2024-02-14T04:25:51;7.50;99.90
52565;DHT22;38460;53.106;7.004;2024-02-14T04:28:16;7.50;99.90
52565;DHT22;38460;53.106;7.004;2024-02-14T04:30:42;7.50;99.90
52565;DHT22;38460;53.106;7.004;2024-02-14T04:33:08;7.60;99.90
52565;DHT22;38460;53.106;7.004;2024-02-14T04:35:35;7.60;99.90
52565;DHT22;38460;53.106;7.004;2024-02-14T04:38:03;7.60;99.90
52565;DHT22;38460;53.106;7.004;2024-02-14T04:40:29;7.60;99.90
52565;DHT22;38460;53.106;7.004;2024-02-14T04:42:55;7.70;99.90
52565;DHT22;38460;53.106;7.004;2024-02-14T04:45:21;7.70;99.90
52565;DHT22;38460;53.106;7.004;2024-02-14T04:47:46;7.80;99.90
52565;DHT22;38460;53.106;7.004;2024-02-14T04:50:12;7.80;99.90
52565;DHT22;38460;53.106;7.004;2024-02-14T04:52:39;7.80;99.90
52565;DHT22;38460;53.106;7.004;2024-02-14T04:55:05;7.80;99.90
52565;DHT22;38460;53.106;7.004;2024-02-14T04:57:31;7.80;99.90
52565;DHT22;38460;53.106;7.004;2024-02-14T05:00:00;7.80;99.90
52565;DHT22;38460;53.106;7.004;2024-02-14T05:02:26;7.80;99.90
52565;DHT22;38460;53.106;7.004;2024-02-14T05:04:53;7.80;99.90
52565;DHT22;38460;53.106;7.004;2024-02-14T05:07:20;7.90;99.90
52565;DHT22;38460;53.106;7.004;2024-02-14T05:09:46;7.90;99.90
52565;DHT22;38460;53.106;7.004;2024-02-14T05:12:15;7.90;99.90
52565;DHT22;38460;53.106;7.004;2024-02-14T05:14:40;8.00;99.90
52565;DHT22;38460;53.106;7.004;2024-02-14T05:17:07;8.00;99.90
52565;DHT22;38460;53.106;7.004;2024-02-14T05:19:33;8.00;99.90
52565;DHT22;38460;53.106;7.004;2024-02-14T05:21:59;8.10;99.90
52565;DHT22;38460;53.106;7.004;2024-02-14T05:24:24;8.10;99.90
52565;DHT22;38460;53.106;7.004;2024-02-14T05:26:53;8.10;99.90
52565;DHT22;38460;53.106;7.004;2024-02-14T05:29:18;8.10;99.90
52565;DHT22;38460;53.106;7.004;2024-02-14T05:31:46;8.20;99.90
52565;DHT22;38460;53.106;7.004;2024-02-14T05:34:14;8.20;99.90
52565;DHT22;38460;53.106;7.004;2024-02-14T05:36:40;8.20;99.90
52565;DHT22;38460;53.106;7.004;2024-02-14T05:39:08;8.30;99.90
52565;DHT22;38460;53.106;7.004;2024-02-14T05:41:34;8.30;99.90
52565;DHT22;38460;53.106;7.004;2024-02-14T05:44:00;8.30;99.90
52565;DHT22;38460;53.106;7.004;2024-02-14T05:46:26;8.30;99.90
52565;DHT22;38460;53.106;7.004;2024-02-14T05:48:51;8.30;99.90
52565;DHT22;38460;53.106;7.004;2024-02-14T05:51:23;8.40;99.90
52565;DHT22;38460;53.106;7.004;2024-02-14T05:53:49;8.40;99.90
52565;DHT22;38460;53.106;7.004;2024-02-14T05:56:14;8.40;99.90
52565;DHT22;38460;53.106;7.004;2024-02-14T05:58:40;8.40;99.90
52565;DHT22;38460;53.106;7.004;2024-02-14T06:01:06;8.40;99.90
52565;DHT22;38460;53.106;7.004;2024-02-14T06:03:32;8.50;99.90
52565;DHT22;38460;53.106;7.004;2024-02-14T06:05:58;8.50;99.90
52565;DHT22;38460;53.106;7.004;2024-02-14T06:08:24;8.50;99.90
52565;DHT22;38460;53.106;7.004;2024-02-14T06:10:50;8.50;99.90
52565;DHT22;38460;53.106;7.004;2024-02-14T06:13:16;8.50;99.90
52565;DHT22;38460;53.106;7.004;2024-02-14T06:15:41;8.50;99.90
52565;DHT22;38460;53.106;7.004;2024-02-14T06:18:07;8.60;99.90
52565;DHT22;38460;53.106;7.004;2024-02-14T06:20:33;8.60;99.90
52565;DHT22;38460;53.106;7.004;2024-02-14T06:22:58;8.60;99.90
52565;DHT22;38460;53.106;7.004;2024-02-14T06:25:24;8.60;99.90
52565;DHT22;38460;53.106;7.004;2024-02-14T06:27:50;8.60;99.90
52565;DHT22;38460;53.106;7.004;2024-02-14T06:30:15;8.70;99.90
52565;DHT22;38460;53.106;7.004;2024-02-14T06:32:42;8.70;99.90
52565;DHT22;38460;53.106;7.004;2024-02-14T06:35:08;8.70;99.90
52565;DHT22;38460;53.106;7.004;2024-02-14T06:37:34;8.70;99.90
52565;DHT22;38460;53.106;7.004;2024-02-14T06:40:00;8.70;99.90
52565;DHT22;38460;53.106;7.004;2024-02-14T06:42:25;8.70;99.90
52565;DHT22;38460;53.106;7.004;2024-02-14T06:44:52;8.70;99.90
52565;DHT22;38460;53.106;7.004;2024-02-14T06:47:17;8.80;99.90
52565;DHT22;38460;53.106;7.004;2024-02-14T06:49:43;8.80;99.90
52565;DHT22;38460;53.106;7.004;2024-02-14T06:52:09;8.80;99.90
52565;DHT22;38460;53.106;7.004;2024-02-14T06:54:35;8.80;99.90
52565;DHT22;38460;53.106;7.004;2024-02-14T06:57:01;8.80;99.90
52565;DHT22;38460;53.106;7.004;2024-02-14T06:59:26;8.80;99.90
52565;DHT22;38460;53.106;7.004;2024-02-14T07:01:52;8.80;99.90
52565;DHT22;38460;53.106;7.004;2024-02-14T07:04:21;8.90;99.90
52565;DHT22;38460;53.106;7.004;2024-02-14T07:06:52;8.90;99.90
52565;DHT22;38460;53.106;7.004;2024-02-14T07:09:18;8.90;99.90
52565;DHT22;38460;53.106;7.004;2024-02-14T07:11:44;8.90;99.90
52565;DHT22;38460;53.106;7.004;2024-02-14T07:14:11;8.90;99.90
52565;DHT22;38460;53.106;7.004;2024-02-14T07:16:37;9.00;99.90
52565;DHT22;38460;53.106;7.004;2024-02-14T07:19:03;9.00;99.90
52565;DHT22;38460;53.106;7.004;2024-02-14T07:21:29;9.00;99.90
52565;DHT22;38460;53.106;7.004;2024-02-14T07:23:55;9.00;99.90
52565;DHT22;38460;53.106;7.004;2024-02-14T07:26:21;9.00;99.90
52565;DHT22;38460;53.106;7.004;2024-02-14T07:28:46;9.00;99.90
52565;DHT22;38460;53.106;7.004;2024-02-14T07:31:12;9.00;99.90
52565;DHT22;38460;53.106;7.004;2024-02-14T07:33:38;9.00;99.90
52565;DHT22;38460;53.106;7.004;2024-02-14T07:36:04;9.10;99.90
52565;DHT22;38460;53.106;7.004;2024-02-14T07:38:30;9.10;99.90
52565;DHT22;38460;53.106;7.004;2024-02-14T07:40:56;9.10;99.90
52565;DHT22;38460;53.106;7.004;2024-02-14T07:43:22;9.10;99.90
52565;DHT22;38460;53.106;7.004;2024-02-14T07:45:48;9.10;99.90
52565;DHT22;38460;53.106;7.004;2024-02-14T07:48:14;9.20;99.90
52565;DHT22;38460;53.106;7.004;2024-02-14T07:50:40;9.20;99.90
52565;DHT22;38460;53.106;7.004;2024-02-14T07:53:05;9.20;99.90
52565;DHT22;38460;53.106;7.004;2024-02-14T07:55:32;9.20;99.90
52565;DHT22;38460;53.106;7.004;2024-02-14T07:57:57;9.20;99.90
52565;DHT22;38460;53.106;7.004;2024-02-14T08:00:25;9.20;99.90
52565;DHT22;38460;53.106;7.004;2024-02-14T08:02:51;9.30;99.90
52565;DHT22;38460;53.106;7.004;2024-02-14T08:05:17;9.30;99.90
52565;DHT22;38460;53.106;7.004;2024-02-14T08:07:44;9.30;99.90
52565;DHT22;38460;53.106;7.004;2024-02-14T08:10:11;9.40;99.90
52565;DHT22;38460;53.106;7.004;2024-02-14T08:12:37;9.40;99.90
52565;DHT22;38460;53.106;7.004;2024-02-14T08:15:03;9.40;99.90
52565;DHT22;38460;53.106;7.004;2024-02-14T08:17:31;9.40;99.90
52565;DHT22;38460;53.106;7.004;2024-02-14T08:19:57;9.40;99.90
52565;DHT22;38460;53.106;7.004;2024-02-14T08:22:23;9.40;99.90
52565;DHT22;38460;53.106;7.004;2024-02-14T08:24:48;9.50;99.90
52565;DHT22;38460;53.106;7.004;2024-02-14T08:27:14;9.50;99.90
52565;DHT22;38460;53.106;7.004;2024-02-14T08:29:40;9.50;99.90
52565;DHT22;38460;53.106;7.004;2024-02-14T08:32:06;9.50;99.90
52565;DHT22;38460;53.106;7.004;2024-02-14T08:34:31;9.50;99.90
52565;DHT22;38460;53.106;7.004;2024-02-14T08:36:57;9.60;99.90
52565;DHT22;38460;53.106;7.004;2024-02-14T08:39:23;9.60;99.90
52565;DHT22;38460;53.106;7.004;2024-02-14T08:41:49;9.60;99.90
52565;DHT22;38460;53.106;7.004;2024-02-14T08:44:15;9.60;99.90
52565;DHT22;38460;53.106;7.004;2024-02-14T08:46:41;9.70;99.90
52565;DHT22;38460;53.106;7.004;2024-02-14T08:49:10;9.70;99.90
52565;DHT22;38460;53.106;7.004;2024-02-14T08:51:36;9.70;99.90
52565;DHT22;38460;53.106;7.004;2024-02-14T08:54:02;9.70;99.90
52565;DHT22;38460;53.106;7.004;2024-02-14T08:56:34;9.80;99.90
52565;DHT22;38460;53.106;7.004;2024-02-14T08:59:01;9.80;99.90
52565;DHT22;38460;53.106;7.004;2024-02-14T09:01:28;9.80;99.90
52565;DHT22;38460;53.106;7.004;2024-02-14T09:03:55;9.80;99.90
52565;DHT22;38460;53.106;7.004;2024-02-14T09:06:20;9.90;99.90
52565;DHT22;38460;53.106;7.004;2024-02-14T09:08:46;9.90;99.90
52565;DHT22;38460;53.106;7.004;2024-02-14T09:11:12;9.90;99.90
52565;DHT22;38460;53.106;7.004;2024-02-14T09:13:38;9.90;99.90
52565;DHT22;38460;53.106;7.004;2024-02-14T09:16:10;9.90;99.90
52565;DHT22;38460;53.106;7.004;2024-02-14T09:18:37;9.90;99.90
52565;DHT22;38460;53.106;7.004;2024-02-14T09:21:03;9.90;99.90
52565;DHT22;38460;53.106;7.004;2024-02-14T09:23:31;9.90;99.90
52565;DHT22;38460;53.106;7.004;2024-02-14T09:25:58;10.00;99.90
52565;DHT22;38460;53.106;7.004;2024-02-14T09:28:24;10.00;99.90
52565;DHT22;38460;53.106;7.004;2024-02-14T09:30:51;10.00;99.90
52565;DHT22;38460;53.106;7.004;2024-02-14T09:33:16;10.00;99.90
52565;DHT22;38460;53.106;7.004;2024-02-14T09:35:42;10.10;99.90
52565;DHT22;38460;53.106;7.004;2024-02-14T09:38:13;10.10;99.90
52565;DHT22;38460;53.106;7.004;2024-02-14T09:40:42;10.10;99.90
52565;DHT22;38460;53.106;7.004;2024-02-14T09:45:51;10.10;99.90
52565;DHT22;38460;53.106;7.004;2024-02-14T09:48:19;10.20;99.90
52565;DHT22;38460;53.106;7.004;2024-02-14T09:50:48;10.20;99.90
52565;DHT22;38460;53.106;7.004;2024-02-14T09:53:15;10.20;99.90
52565;DHT22;38460;53.106;7.004;2024-02-14T09:55:42;10.20;99.90
52565;DHT22;38460;53.106;7.004;2024-02-14T09:58:08;10.20;99.90
52565;DHT22;38460;53.106;7.004;2024-02-14T10:00:35;10.20;99.90
52565;DHT22;38460;53.106;7.004;2024-02-14T10:03:01;10.20;99.90
52565;DHT22;38460;53.106;7.004;2024-02-14T10:05:28;10.30;99.90
52565;DHT22;38460;53.106;7.004;2024-02-14T10:07:56;10.30;99.90
52565;DHT22;38460;53.106;7.004;2024-02-14T10:10:22;10.30;99.90
52565;DHT22;38460;53.106;7.004;2024-02-14T10:12:48;10.30;99.90
52565;DHT22;38460;53.106;7.004;2024-02-14T10:15:13;10.30;99.90
52565;DHT22;38460;53.106;7.004;2024-02-14T10:17:39;10.30;99.90
52565;DHT22;38460;53.106;7.004;2024-02-14T10:20:07;10.30;99.90
52565;DHT22;38460;53.106;7.004;2024-02-14T10:22:36;10.30;99.90
52565;DHT22;38460;53.106;7.004;2024-02-14T10:25:06;10.40;99.90
52565;DHT22;38460;53.106;7.004;2024-02-14T10:27:37;10.40;99.90
52565;DHT22;38460;53.106;7.004;2024-02-14T10:30:05;10.40;99.90
52565;DHT22;38460;53.106;7.004;2024-02-14T10:32:37;10.40;99.90
52565;DHT22;38460;53.106;7.004;2024-02-14T10:35:07;10.40;99.90
52565;DHT22;38460;53.106;7.004;2024-02-14T10:37:35;10.40;99.90
52565;DHT22;38460;53.106;7.004;2024-02-14T10:40:04;10.40;99.90
52565;DHT22;38460;53.106;7.004;2024-02-14T10:42:31;10.40;99.90
52565;DHT22;38460;53.106;7.004;2024-02-14T10:44:57;10.40;99.90
52565;DHT22;38460;53.106;7.004;2024-02-14T10:47:34;10.40;99.90
52565;DHT22;38460;53.106;7.004;2024-02-14T10:50:05;10.40;99.90
52565;DHT22;38460;53.106;7.004;2024-02-14T10:52:32;10.40;99.90
52565;DHT22;38460;53.106;7.004;2024-02-14T10:55:04;10.40;99.90
52565;DHT22;38460;53.106;7.004;2024-02-14T10:57:31;10.50;99.90
52565;DHT22;38460;53.106;7.004;2024-02-14T11:00:01;10.50;99.90
52565;DHT22;38460;53.106;7.004;2024-02-14T11:02:27;10.50;99.90
52565;DHT22;38460;53.106;7.004;2024-02-14T11:04:56;10.50;99.90
52565;DHT22;38460;53.106;7.004;2024-02-14T11:07:22;10.60;99.90
52565;DHT22;38460;53.106;7.004;2024-02-14T11:10:06;10.60;99.90
52565;DHT22;38460;53.106;7.004;2024-02-14T11:12:33;10.60;99.90
52565;DHT22;38460;53.106;7.004;2024-02-14T11:14:59;10.60;99.90
52565;DHT22;38460;53.106;7.004;2024-02-14T11:17:26;10.60;99.90
52565;DHT22;38460;53.106;7.004;2024-02-14T11:19:53;10.70;99.90
52565;DHT22;38460;53.106;7.004;2024-02-14T11:22:20;10.60;99.90
52565;DHT22;38460;53.106;7.004;2024-02-14T11:24:49;10.60;99.90
52565;DHT22;38460;53.106;7.004;2024-02-14T11:27:18;10.70;99.90
52565;DHT22;38460;53.106;7.004;2024-02-14T11:29:53;10.70;99.90
52565;DHT22;38460;53.106;7.004;2024-02-14T11:32:19;10.70;99.90
52565;DHT22;38460;53.106;7.004;2024-02-14T11:34:54;10.70;99.90
52565;DHT22;38460;53.106;7.004;2024-02-14T11:37:30;10.70;99.90
52565;DHT22;38460;53.106;7.004;2024-02-14T11:39:57;10.80;99.90
52565;DHT22;38460;53.106;7.004;2024-02-14T11:42:24;10.80;99.90
52565;DHT22;38460;53.106;7.004;2024-02-14T11:44:50;10.80;99.90
52565;DHT22;38460;53.106;7.004;2024-02-14T11:47:16;10.80;99.90
52565;DHT22;38460;53.106;7.004;2024-02-14T11:49:41;10.80;99.90
52565;DHT22;38460;53.106;7.004;2024-02-14T11:52:14;10.90;99.90
52565;DHT22;38460;53.106;7.004;2024-02-14T11:54:39;10.90;99.90
52565;DHT22;38460;53.106;7.004;2024-02-14T11:57:05;10.90;99.90
52565;DHT22;38460;53.106;7.004;2024-02-14T11:59:34;10.90;99.90
52565;DHT22;38460;53.106;7.004;2024-02-14T12:02:00;10.90;99.90
52565;DHT22;38460;53.106;7.004;2024-02-14T12:04:28;10.90;99.90
52565;DHT22;38460;53.106;7.004;2024-02-14T12:06:54;10.90;99.90
52565;DHT22;38460;53.106;7.004;2024-02-14T12:09:20;10.90;99.90
52565;DHT22;38460;53.106;7.004;2024-02-14T12:11:47;10.90;99.90
52565;DHT22;38460;53.106;7.004;2024-02-14T12:14:13;10.90;99.90
52565;DHT22;38460;53.106;7.004;2024-02-14T12:16:39;10.90;99.90
52565;DHT22;38460;53.106;7.004;2024-02-14T12:19:15;10.90;99.90
52565;DHT22;38460;53.106;7.004;2024-02-14T12:21:42;10.90;99.90
52565;DHT22;38460;53.106;7.004;2024-02-14T12:24:12;10.90;99.90
52565;DHT22;38460;53.106;7.004;2024-02-14T12:26:41;11.00;99.90
52565;DHT22;38460;53.106;7.004;2024-02-14T12:29:10;11.00;99.90
52565;DHT22;38460;53.106;7.004;2024-02-14T12:31:36;11.00;99.90
52565;DHT22;38460;53.106;7.004;2024-02-14T12:34:03;11.00;99.90
52565;DHT22;38460;53.106;7.004;2024-02-14T12:36:31;11.00;99.90
52565;DHT22;38460;53.106;7.004;2024-02-14T12:38:59;11.10;99.90
52565;DHT22;38460;53.106;7.004;2024-02-14T12:41:25;11.10;99.90
52565;DHT22;38460;53.106;7.004;2024-02-14T12:43:55;11.10;99.90
52565;DHT22;38460;53.106;7.004;2024-02-14T12:46:22;11.10;99.90
52565;DHT22;38460;53.106;7.004;2024-02-14T12:48:47;11.10;99.90
52565;DHT22;38460;53.106;7.004;2024-02-14T12:51:14;11.20;99.90
52565;DHT22;38460;53.106;7.004;2024-02-14T12:53:40;11.20;99.90
52565;DHT22;38460;53.106;7.004;2024-02-14T12:56:09;11.20;99.90
52565;DHT22;38460;53.106;7.004;2024-02-14T12:58:35;11.20;99.90
52565;DHT22;38460;53.106;7.004;2024-02-14T13:01:02;11.20;99.90
52565;DHT22;38460;53.106;7.004;2024-02-14T13:03:32;11.20;99.90
52565;DHT22;38460;53.106;7.004;2024-02-14T13:05:59;11.20;99.90
52565;DHT22;38460;53.106;7.004;2024-02-14T13:08:25;11.20;99.90
52565;DHT22;38460;53.106;7.004;2024-02-14T13:10:52;11.20;99.90
52565;DHT22;38460;53.106;7.004;2024-02-14T13:13:18;11.20;99.90
52565;DHT22;38460;53.106;7.004;2024-02-14T13:15:44;11.20;99.90
52565;DHT22;38460;53.106;7.004;2024-02-14T13:18:10;11.20;99.90
52565;DHT22;38460;53.106;7.004;2024-02-14T13:20:36;11.20;99.90
52565;DHT22;38460;53.106;7.004;2024-02-14T13:23:03;11.20;99.90
52565;DHT22;38460;53.106;7.004;2024-02-14T13:25:29;11.30;99.90
52565;DHT22;38460;53.106;7.004;2024-02-14T13:27:54;11.30;99.90
52565;DHT22;38460;53.106;7.004;2024-02-14T13:30:21;11.20;99.90
52565;DHT22;38460;53.106;7.004;2024-02-14T13:32:48;11.20;99.90
52565;DHT22;38460;53.106;7.004;2024-02-14T13:35:14;11.30;99.90
52565;DHT22;38460;53.106;7.004;2024-02-14T13:37:39;11.30;99.90
52565;DHT22;38460;53.106;7.004;2024-02-14T13:40:06;11.30;99.90
52565;DHT22;38460;53.106;7.004;2024-02-14T13:42:38;11.30;99.90
52565;DHT22;38460;53.106;7.004;2024-02-14T13:45:05;11.30;99.90
52565;DHT22;38460;53.106;7.004;2024-02-14T13:47:41;11.30;99.90
52565;DHT22;38460;53.106;7.004;2024-02-14T13:50:11;11.30;99.90
52565;DHT22;38460;53.106;7.004;2024-02-14T13:52:38;11.30;99.90
52565;DHT22;38460;53.106;7.004;2024-02-14T13:55:04;11.30;99.90
52565;DHT22;38460;53.106;7.004;2024-02-14T13:57:39;11.30;99.90
52565;DHT22;38460;53.106;7.004;2024-02-14T14:00:07;11.30;99.90
52565;DHT22;38460;53.106;7.004;2024-02-14T14:02:37;11.30;99.90
52565;DHT22;38460;53.106;7.004;2024-02-14T14:05:10;11.30;99.90
52565;DHT22;38460;53.106;7.004;2024-02-14T14:07:38;11.20;99.90
52565;DHT22;38460;53.106;7.004;2024-02-14T14:10:05;11.20;99.90
52565;DHT22;38460;53.106;7.004;2024-02-14T14:12:31;11.20;99.90
52565;DHT22;38460;53.106;7.004;2024-02-14T14:14:57;11.20;99.90
52565;DHT22;38460;53.106;7.004;2024-02-14T14:17:23;11.20;99.90
52565;DHT22;38460;53.106;7.004;2024-02-14T14:19:49;11.20;99.90
52565;DHT22;38460;53.106;7.004;2024-02-14T14:22:15;11.20;99.90
52565;DHT22;38460;53.106;7.004;2024-02-14T14:24:42;11.20;99.90
52565;DHT22;38460;53.106;7.004;2024-02-14T14:27:08;11.20;99.90
52565;DHT22;38460;53.106;7.004;2024-02-14T14:29:40;11.30;99.90
52565;DHT22;38460;53.106;7.004;2024-02-14T14:32:07;11.30;99.90
52565;DHT22;38460;53.106;7.004;2024-02-14T14:34:33;11.30;99.90
52565;DHT22;38460;53.106;7.004;2024-02-14T14:36:59;11.30;99.90
52565;DHT22;38460;53.106;7.004;2024-02-14T14:39:26;11.30;99.90
52565;DHT22;38460;53.106;7.004;2024-02-14T14:41:52;11.30;99.90
52565;DHT22;38460;53.106;7.004;2024-02-14T14:44:19;11.30;99.90
52565;DHT22;38460;53.106;7.004;2024-02-14T14:46:45;11.30;99.90
52565;DHT22;38460;53.106;7.004;2024-02-14T14:49:11;11.30;99.90
52565;DHT22;38460;53.106;7.004;2024-02-14T14:51:37;11.30;99.90
52565;DHT22;38460;53.106;7.004;2024-02-14T14:54:06;11.30;99.90
52565;DHT22;38460;53.106;7.004;2024-02-14T14:56:32;11.30;99.90
52565;DHT22;38460;53.106;7.004;2024-02-14T14:58:58;11.30;99.90
52565;DHT22;38460;53.106;7.004;2024-02-14T15:01:28;11.30;99.90
52565;DHT22;38460;53.106;7.004;2024-02-14T15:03:55;11.30;99.90
52565;DHT22;38460;53.106;7.004;2024-02-14T15:06:21;11.30;99.90
52565;DHT22;38460;53.106;7.004;2024-02-14T15:08:47;11.30;99.90
52565;DHT22;38460;53.106;7.004;2024-02-14T15:11:14;11.20;99.90
52565;DHT22;38460;53.106;7.004;2024-02-14T15:13:42;11.30;99.90
52565;DHT22;38460;53.106;7.004;2024-02-14T15:16:10;11.30;99.90
52565;DHT22;38460;53.106;7.004;2024-02-14T15:18:36;11.20;99.90
52565;DHT22;38460;53.106;7.004;2024-02-14T15:21:02;11.20;99.90
52565;DHT22;38460;53.106;7.004;2024-02-14T15:23:28;11.20;99.90
52565;DHT22;38460;53.106;7.004;2024-02-14T15:25:54;11.20;99.90
52565;DHT22;38460;53.106;7.004;2024-02-14T15:28:28;11.20;99.90
52565;DHT22;38460;53.106;7.004;2024-02-14T15:30:56;11.20;99.90
52565;DHT22;38460;53.106;7.004;2024-02-14T15:33:40;11.20;99.90
52565;DHT22;38460;53.106;7.004;2024-02-14T15:36:06;11.20;99.90
52565;DHT22;38460;53.106;7.004;2024-02-14T15:38:32;11.20;99.90
52565;DHT22;38460;53.106;7.004;2024-02-14T15:40:58;11.20;99.90